createdAt,value
2023-01-11T00:01:14.306Z,62.80
2023-01-11T00:03:45.939Z,67.60
2023-01-11T00:06:17.426Z,62.40
2023-01-11T00:08:48.943Z,57.60
2023-01-11T00:11:20.641Z,57.20
2023-01-11T00:13:52.331Z,56.30
2023-01-11T00:16:23.800Z,56.00
2023-01-11T00:18:55.156Z,56.20
2023-01-11T00:21:27.023Z,56.30
2023-01-11T00:23:58.851Z,66.70
2023-01-11T00:26:30.458Z,50.20
2023-01-11T00:29:03.675Z,57.10
2023-01-11T00:31:35.120Z,62.20
2023-01-11T00:34:09.722Z,52.50
2023-01-11T00:36:41.342Z,59.70
2023-01-11T00:39:12.743Z,51.30
2023-01-11T00:42:01.739Z,54.50
2023-01-11T00:44:50.806Z,54.70
2023-01-11T00:47:39.434Z,53.50
2023-01-11T00:50:12.414Z,45.40
2023-01-11T00:53:04.779Z,44.40
2023-01-11T00:55:39.565Z,45.70
2023-01-11T01:00:42.433Z,40.80
2023-01-11T01:03:13.921Z,43.70
2023-01-11T01:05:49.413Z,46.50
2023-01-11T01:08:20.936Z,41.50
2023-01-11T01:10:54.566Z,41.90
2023-01-11T01:13:42.984Z,43.60
2023-01-11T01:16:15.967Z,43.20
2023-01-11T01:18:47.848Z,42.30
2023-01-11T01:21:49.291Z,49.10
2023-01-11T01:24:21.082Z,44.90
2023-01-11T01:26:53.921Z,45.10
2023-01-11T01:29:25.652Z,45.40
2023-01-11T01:31:59.038Z,49.20
2023-01-11T01:34:30.710Z,50.90
2023-01-11T01:37:02.170Z,48.40
2023-01-11T01:39:34.105Z,53.00
2023-01-11T01:42:07.450Z,41.80
2023-01-11T01:44:58.115Z,55.20
2023-01-11T01:47:35.265Z,57.40
2023-01-11T01:50:13.849Z,60.40
2023-01-11T01:52:49.059Z,54.60
2023-01-11T01:55:26.897Z,61.50
2023-01-11T01:58:05.375Z,56.10
2023-01-11T02:00:40.775Z,62.50
2023-01-11T02:03:15.607Z,51.30
2023-01-11T02:08:26.699Z,51.70
2023-01-11T02:10:59.278Z,48.00
2023-01-11T02:13:46.414Z,46.40
2023-01-11T02:16:18.402Z,43.00
2023-01-11T02:18:50.048Z,47.30
2023-01-11T02:21:29.489Z,48.00
2023-01-11T02:24:36.809Z,43.50
2023-01-11T02:27:26.640Z,41.80
2023-01-11T02:30:15.702Z,41.00
2023-01-11T02:33:05.990Z,45.80
2023-01-11T02:36:07.533Z,42.20
2023-01-11T02:38:56.846Z,40.50
2023-01-11T02:41:54.858Z,38.90
2023-01-11T02:44:53.160Z,38.60
2023-01-11T02:47:31.660Z,40.90
2023-01-11T02:50:08.882Z,41.70
2023-01-11T02:52:49.089Z,42.30
2023-01-11T02:55:27.217Z,44.30
2023-01-11T02:58:03.230Z,41.50
2023-01-11T03:00:35.486Z,45.10
2023-01-11T03:03:16.816Z,40.20
2023-01-11T03:05:52.144Z,41.60
2023-01-11T03:08:40.866Z,45.60
2023-01-11T03:11:36.050Z,45.10
2023-01-11T03:14:17.080Z,42.70
2023-01-11T03:16:53.795Z,42.50
2023-01-11T03:19:30.964Z,47.30
2023-01-11T03:22:09.302Z,40.30
2023-01-11T03:24:47.801Z,40.80
2023-01-11T03:27:28.189Z,49.00
2023-01-11T03:30:07.358Z,49.90
2023-01-11T03:32:48.957Z,49.30
2023-01-11T03:35:27.648Z,51.00
2023-01-11T03:38:03.086Z,51.90
2023-01-11T03:40:38.475Z,49.00
2023-01-11T03:43:15.140Z,47.70
2023-01-11T03:46:00.353Z,48.50
2023-01-11T03:51:09.270Z,43.80
2023-01-11T03:53:49.637Z,45.70
2023-01-11T03:56:26.847Z,42.70
2023-01-11T03:58:58.595Z,44.40
2023-01-11T04:01:31.470Z,44.30
2023-01-11T04:04:02.972Z,46.20
2023-01-11T04:06:38.167Z,49.60
2023-01-11T04:09:12.410Z,45.60
2023-01-11T04:11:43.969Z,53.30
2023-01-11T04:14:15.548Z,49.50
2023-01-11T04:16:47.212Z,45.30
2023-01-11T04:19:19.396Z,46.50
2023-01-11T04:21:54.024Z,46.00
2023-01-11T04:24:27.606Z,44.10
2023-01-11T04:27:01.267Z,46.90
2023-01-11T04:29:32.993Z,45.70
2023-01-11T04:35:56.371Z,38.50
2023-01-11T04:38:28.050Z,47.40
2023-01-11T04:41:13.161Z,42.30
2023-01-11T04:46:15.421Z,44.70
2023-01-11T04:48:47.217Z,47.70
2023-01-11T04:51:26.078Z,51.00
2023-01-11T04:53:58.003Z,46.00
2023-01-11T04:56:29.892Z,53.00
2023-01-11T04:59:03.065Z,50.40
2023-01-11T05:01:34.498Z,52.80
2023-01-11T05:04:06.390Z,48.10
2023-01-11T05:06:37.983Z,52.20
2023-01-11T05:09:13.866Z,45.10
2023-01-11T05:11:46.017Z,43.50
2023-01-11T05:14:18.637Z,45.90
2023-01-11T05:16:50.237Z,45.00
2023-01-11T05:19:22.257Z,42.10
2023-01-11T05:21:56.318Z,43.30
2023-01-11T05:24:27.778Z,48.60
2023-01-11T05:26:59.156Z,42.20
2023-01-11T05:29:30.806Z,44.60
2023-01-11T05:32:02.201Z,44.50
2023-01-11T05:34:33.734Z,44.10
2023-01-11T05:37:05.200Z,45.70
2023-01-11T05:39:36.874Z,50.30
2023-01-11T05:42:09.565Z,46.70
2023-01-11T05:44:58.536Z,50.10
2023-01-11T05:47:30.000Z,58.00
2023-01-11T05:50:01.497Z,55.20
2023-01-11T05:52:33.541Z,53.50
2023-01-11T05:55:05.261Z,49.30
2023-01-11T05:57:36.674Z,53.70
2023-01-11T06:00:10.735Z,53.80
2023-01-11T06:02:42.337Z,60.60
2023-01-11T06:05:14.272Z,52.40
2023-01-11T06:07:46.206Z,48.60
2023-01-11T06:10:18.040Z,52.90
2023-01-11T06:13:16.393Z,54.30
2023-01-11T06:15:49.439Z,57.20
2023-01-11T06:18:21.213Z,56.70
2023-01-11T06:20:56.541Z,51.10
2023-01-11T06:23:29.434Z,55.40
2023-01-11T06:26:04.940Z,55.30
2023-01-11T06:28:37.048Z,57.40
2023-01-11T06:31:09.647Z,49.10
2023-01-11T06:33:41.108Z,53.70
2023-01-11T06:36:14.342Z,50.00
2023-01-11T06:38:46.563Z,51.80
2023-01-11T06:41:17.973Z,52.30
2023-01-11T06:43:49.905Z,55.90
2023-01-11T06:46:21.469Z,51.60
2023-01-11T06:48:54.516Z,55.60
2023-01-11T06:51:26.059Z,53.20
2023-01-11T06:53:59.272Z,54.40
2023-01-11T06:56:31.141Z,44.40
2023-01-11T06:59:02.700Z,48.20
2023-01-11T07:01:34.361Z,50.10
2023-01-11T07:04:06.161Z,47.20
2023-01-11T07:06:39.619Z,49.60
2023-01-11T07:09:12.123Z,55.20
2023-01-11T07:11:43.940Z,56.40
2023-01-11T07:14:20.161Z,57.60
2023-01-11T07:16:53.936Z,57.30
2023-01-11T07:19:26.379Z,47.20
2023-01-11T07:21:57.928Z,56.40
2023-01-11T07:24:30.079Z,63.10
2023-01-11T07:27:03.233Z,61.70
2023-01-11T07:29:34.912Z,58.50
2023-01-11T07:32:08.567Z,63.80
2023-01-11T07:34:40.386Z,62.40
2023-01-11T07:37:28.360Z,59.50
2023-01-11T07:40:01.168Z,63.80
2023-01-11T07:42:50.500Z,71.80
2023-01-11T07:45:22.457Z,71.10
2023-01-11T07:47:56.003Z,67.40
2023-01-11T07:50:27.805Z,61.30
2023-01-11T07:52:59.667Z,60.40
2023-01-11T07:55:34.559Z,60.10
2023-01-11T07:58:06.280Z,71.00
2023-01-11T08:00:38.001Z,61.20
2023-01-11T08:03:09.842Z,59.40
2023-01-11T08:05:42.005Z,61.00
2023-01-11T08:08:13.967Z,54.20
2023-01-11T08:10:45.480Z,45.90
2023-01-11T08:13:37.786Z,45.30
2023-01-11T08:16:10.025Z,47.00
2023-01-11T08:18:41.773Z,49.50
2023-01-11T08:21:14.982Z,43.80
2023-01-11T08:23:46.649Z,40.30
2023-01-11T08:26:18.334Z,37.40
2023-01-11T08:28:50.099Z,39.70
2023-01-11T08:31:22.261Z,36.20
2023-01-11T08:33:53.993Z,36.20
2023-01-11T08:36:27.707Z,33.50
2023-01-11T08:39:00.407Z,36.10
2023-01-11T08:41:32.882Z,33.30
2023-01-11T08:44:04.697Z,35.30
2023-01-11T08:46:38.396Z,33.60
2023-01-11T08:49:12.504Z,37.10
2023-01-11T08:51:44.965Z,36.70
2023-01-11T08:54:17.960Z,32.80
2023-01-11T08:56:49.738Z,31.70
2023-01-11T08:59:22.410Z,29.10
2023-01-11T09:02:00.274Z,31.00
2023-01-11T09:04:32.210Z,31.00
2023-01-11T09:07:04.392Z,27.20
2023-01-11T09:09:36.472Z,25.80
2023-01-11T09:12:10.146Z,25.00
2023-01-11T09:14:42.333Z,30.70
2023-01-11T09:17:14.129Z,26.30
2023-01-11T09:19:45.971Z,28.70
2023-01-11T09:22:19.165Z,28.80
2023-01-11T09:24:51.457Z,24.40
2023-01-11T09:27:24.926Z,28.40
2023-01-11T09:29:56.622Z,25.50
2023-01-11T09:32:29.028Z,25.90
2023-01-11T09:35:01.794Z,25.90
2023-01-11T09:37:36.373Z,31.60
2023-01-11T09:40:16.184Z,27.20
2023-01-11T09:42:52.933Z,29.30
2023-01-11T09:45:28.276Z,33.40
2023-01-11T09:48:11.576Z,31.70
2023-01-11T09:50:48.143Z,27.40
2023-01-11T09:53:31.950Z,33.50
2023-01-11T09:56:06.912Z,28.60
2023-01-11T09:58:51.997Z,29.90
2023-01-11T10:01:31.966Z,28.90
2023-01-11T10:04:33.506Z,25.10
2023-01-11T10:07:43.205Z,29.10
2023-01-11T10:18:26.025Z,28.80
2023-01-11T10:22:18.625Z,30.90
2023-01-11T10:24:58.370Z,26.40
2023-01-11T10:27:39.261Z,30.30
2023-01-11T10:30:42.660Z,28.00
2023-01-11T10:33:30.334Z,26.80
2023-01-11T10:36:19.698Z,29.20
2023-01-11T10:39:12.334Z,29.40
2023-01-11T10:41:57.380Z,31.60
2023-01-11T10:44:42.604Z,24.90
2023-01-11T10:47:20.594Z,26.10
2023-01-11T10:50:00.616Z,28.80
2023-01-11T10:52:40.624Z,23.80
2023-01-11T10:55:18.624Z,26.20
2023-01-11T10:58:03.761Z,25.40
2023-01-11T11:00:51.757Z,26.00
2023-01-11T11:03:45.327Z,25.30
2023-01-11T11:06:30.207Z,25.50
2023-01-11T11:09:14.506Z,25.30
2023-01-11T11:11:53.586Z,28.70
2023-01-11T11:14:32.033Z,26.70
2023-01-11T11:17:14.902Z,26.00
2023-01-11T11:19:46.541Z,23.40
2023-01-11T11:22:20.348Z,26.60
2023-01-11T11:24:56.393Z,22.10
2023-01-11T11:27:32.236Z,22.20
2023-01-11T11:30:04.169Z,21.40
2023-01-11T11:32:38.338Z,23.60
2023-01-11T11:35:30.711Z,20.70
2023-01-11T11:38:02.791Z,20.20
2023-01-11T11:40:37.056Z,23.60
2023-01-11T11:43:23.688Z,19.80
2023-01-11T11:45:57.573Z,17.40
2023-01-11T11:48:31.585Z,17.20
2023-01-11T11:51:06.838Z,19.80
2023-01-11T11:53:43.517Z,16.50
2023-01-11T11:56:26.242Z,15.70
2023-01-11T11:58:59.115Z,20.90
2023-01-11T12:01:33.153Z,17.70
2023-01-11T12:04:14.499Z,17.90
2023-01-11T12:06:48.574Z,18.60
2023-01-11T12:11:58.009Z,17.10
2023-01-11T12:14:32.496Z,16.30
2023-01-11T12:17:23.611Z,19.40
2023-01-11T12:19:55.413Z,17.10
2023-01-11T12:22:29.321Z,15.60
2023-01-11T12:25:25.640Z,17.10
2023-01-11T12:28:04.013Z,17.20
2023-01-11T12:30:45.236Z,15.90
2023-01-11T12:33:32.638Z,18.30
2023-01-11T12:36:12.307Z,17.20
2023-01-11T12:38:53.907Z,17.50
2023-01-11T12:41:56.504Z,21.80
2023-01-11T12:44:41.902Z,13.80
2023-01-11T12:47:48.922Z,16.00
2023-01-11T12:50:25.880Z,19.90
2023-01-11T12:53:11.586Z,16.70
2023-01-11T12:55:58.397Z,20.20
2023-01-11T12:58:38.495Z,20.00
2023-01-11T13:01:28.072Z,20.80
2023-01-11T13:04:25.994Z,21.80
2023-01-11T13:07:08.523Z,22.90
2023-01-11T13:09:54.809Z,21.40
2023-01-11T13:12:35.377Z,21.80
2023-01-11T13:15:18.574Z,20.80
2023-01-11T13:17:54.372Z,21.40
2023-01-11T13:20:58.873Z,19.30
2023-01-11T13:23:39.515Z,32.30
2023-01-11T13:26:20.827Z,27.80
2023-01-11T13:28:56.559Z,27.70
2023-01-11T13:31:28.698Z,32.00
2023-01-11T13:34:05.233Z,31.90
2023-01-11T13:36:45.832Z,26.20
2023-01-11T13:39:23.581Z,29.00
2023-01-11T13:41:58.208Z,23.10
2023-01-11T13:44:37.114Z,27.50
2023-01-11T13:47:17.603Z,26.90
2023-01-11T13:49:55.447Z,23.50
2023-01-11T13:52:40.512Z,23.60
2023-01-11T13:55:24.841Z,24.20
2023-01-11T13:58:03.170Z,19.20
2023-01-11T14:00:40.526Z,19.10
2023-01-11T14:03:26.724Z,17.30
2023-01-11T14:06:10.839Z,16.30
2023-01-11T14:09:11.847Z,20.70
2023-01-11T14:11:53.648Z,17.50
2023-01-11T14:14:48.232Z,13.90
2023-01-11T14:17:41.180Z,16.90
2023-01-11T14:20:22.380Z,16.90
2023-01-11T14:23:03.380Z,21.00
2023-01-11T14:25:40.146Z,19.70
2023-01-11T14:28:42.037Z,21.60
2023-01-11T14:31:30.509Z,22.80
2023-01-11T14:34:46.403Z,21.60
2023-01-11T14:37:47.899Z,21.20
2023-01-11T14:40:51.093Z,23.50
2023-01-11T14:43:36.872Z,23.90
2023-01-11T14:46:36.396Z,29.40
2023-01-11T14:49:17.989Z,23.50
2023-01-11T14:51:59.703Z,24.40
2023-01-11T14:54:34.383Z,24.00
2023-01-11T14:57:06.001Z,22.80
2023-01-11T14:59:41.408Z,29.00
2023-01-11T15:02:29.361Z,24.60
2023-01-11T15:05:12.153Z,24.90
2023-01-11T15:07:45.359Z,25.00
2023-01-11T15:10:46.809Z,30.60
2023-01-11T15:13:23.361Z,24.50
2023-01-11T15:16:25.502Z,24.80
2023-01-11T15:18:57.514Z,25.40
2023-01-11T15:21:30.847Z,28.00
2023-01-11T15:24:02.605Z,28.60
2023-01-11T15:26:48.768Z,27.50
2023-01-11T15:29:25.991Z,30.30
2023-01-11T15:32:18.357Z,27.20
2023-01-11T15:34:50.758Z,29.80
2023-01-11T15:37:38.180Z,29.10
2023-01-11T15:40:18.464Z,31.00
2023-01-11T15:43:24.556Z,28.40
2023-01-11T15:46:50.957Z,30.90
2023-01-11T15:49:58.125Z,32.50
2023-01-11T15:53:16.775Z,34.50
2023-01-11T15:56:15.461Z,31.00
2023-01-11T15:59:19.280Z,30.50
2023-01-11T16:02:35.963Z,30.20
2023-01-11T16:05:19.613Z,29.10
2023-01-11T16:08:00.503Z,31.00
2023-01-11T16:10:47.963Z,27.90
2023-01-11T16:13:39.500Z,31.60
2023-01-11T16:16:18.615Z,33.20
2023-01-11T16:18:54.806Z,34.40
2023-01-11T16:21:34.443Z,32.80
2023-01-11T16:24:09.460Z,27.80
2023-01-11T16:26:43.588Z,27.30
2023-01-11T16:29:21.052Z,31.40
2023-01-11T16:32:00.113Z,34.20
2023-01-11T16:34:41.168Z,34.10
2023-01-11T16:37:25.038Z,30.00
2023-01-11T16:39:59.570Z,31.60
2023-01-11T16:42:36.428Z,27.50
2023-01-11T16:45:15.895Z,24.60
2023-01-11T16:48:06.380Z,29.20
2023-01-11T16:50:38.920Z,24.50
2023-01-11T16:53:14.427Z,31.20
2023-01-11T16:55:53.915Z,21.50
2023-01-11T16:58:30.333Z,27.90
2023-01-11T17:01:04.981Z,27.70
2023-01-11T17:06:22.642Z,33.10
2023-01-11T17:08:56.774Z,28.20
2023-01-11T17:11:32.899Z,28.10
2023-01-11T17:14:37.275Z,28.30
2023-01-11T17:17:12.496Z,27.20
2023-01-11T17:19:48.302Z,28.90
2023-01-11T17:22:25.266Z,29.20
2023-01-11T17:24:59.823Z,26.20
2023-01-11T17:27:35.951Z,22.80
2023-01-11T17:30:15.624Z,28.80
2023-01-11T17:32:49.835Z,30.40
2023-01-11T17:35:24.591Z,26.00
2023-01-11T17:40:31.503Z,28.20
2023-01-11T17:43:25.116Z,26.80
2023-01-11T17:45:58.601Z,26.80
2023-01-11T17:48:31.365Z,26.40
2023-01-11T17:51:04.418Z,28.10
2023-01-11T17:53:37.024Z,27.90
2023-01-11T17:56:29.609Z,24.10
2023-01-11T17:59:21.802Z,25.90
2023-01-11T18:01:57.905Z,29.70
2023-01-11T18:04:31.643Z,28.90
2023-01-11T18:07:15.282Z,29.10
2023-01-11T18:09:49.842Z,29.40
2023-01-11T18:12:24.542Z,27.00
2023-01-11T18:14:58.456Z,32.90
2023-01-11T18:17:42.334Z,30.20
2023-01-11T18:20:38.188Z,29.80
2023-01-11T18:23:23.633Z,30.00
2023-01-11T18:26:32.226Z,34.50
2023-01-11T18:29:04.301Z,27.90
2023-01-11T18:31:35.948Z,26.40
2023-01-11T18:34:11.346Z,33.10
2023-01-11T18:36:43.429Z,32.60
2023-01-11T18:39:15.901Z,29.70
2023-01-11T18:42:01.538Z,28.10
2023-01-11T18:44:34.353Z,31.10
2023-01-11T18:47:12.732Z,27.60
2023-01-11T18:49:44.660Z,30.70
2023-01-11T18:52:19.091Z,31.30
2023-01-11T18:54:52.323Z,29.90
2023-01-11T18:57:25.000Z,32.80
2023-01-11T18:59:57.937Z,26.20
2023-01-11T19:02:35.712Z,31.20
2023-01-11T19:05:12.618Z,26.70
2023-01-11T19:07:46.312Z,34.00
2023-01-11T19:10:24.617Z,33.00
2023-01-11T19:12:57.475Z,31.40
2023-01-11T19:15:29.582Z,31.70
2023-01-11T19:18:03.467Z,32.00
2023-01-11T19:20:36.830Z,32.40
2023-01-11T19:23:10.707Z,33.40
2023-01-11T19:25:44.185Z,37.60
2023-01-11T19:28:16.406Z,33.00
2023-01-11T19:30:49.533Z,32.70
2023-01-11T19:33:23.154Z,32.90
2023-01-11T19:35:56.639Z,32.30
2023-01-11T19:38:30.039Z,29.10
2023-01-11T19:41:08.346Z,36.70
2023-01-11T19:43:45.785Z,32.80
2023-01-11T19:46:30.559Z,33.70
2023-01-11T19:49:06.414Z,33.90
2023-01-11T19:51:40.499Z,36.90
2023-01-11T19:54:21.273Z,36.80
2023-01-11T19:56:54.629Z,37.20
2023-01-11T19:59:28.667Z,33.10
2023-01-11T20:02:01.860Z,31.50
2023-01-11T20:04:33.948Z,31.70
2023-01-11T20:07:06.915Z,37.50
2023-01-11T20:09:40.839Z,35.70
2023-01-11T20:12:15.946Z,33.70
2023-01-11T20:14:48.967Z,34.70
2023-01-11T20:17:22.187Z,37.90
2023-01-11T20:19:55.143Z,31.70
2023-01-11T20:22:29.628Z,35.20
2023-01-11T20:25:02.052Z,38.80
2023-01-11T20:27:35.141Z,36.70
2023-01-11T20:30:08.797Z,33.90
2023-01-11T20:32:42.345Z,38.60
2023-01-11T20:35:16.686Z,38.80
2023-01-11T20:37:48.889Z,38.20
2023-01-11T20:40:22.918Z,37.90
2023-01-11T20:42:58.056Z,37.50
2023-01-11T20:45:32.698Z,38.00
2023-01-11T20:48:04.906Z,40.80
2023-01-11T20:50:37.350Z,34.60
2023-01-11T20:53:09.554Z,37.00
2023-01-11T20:55:41.886Z,36.30
2023-01-11T20:58:14.894Z,39.80
2023-01-11T21:00:46.412Z,34.00
2023-01-11T21:03:20.317Z,34.90
2023-01-11T21:05:53.863Z,37.50
2023-01-11T21:08:25.877Z,39.40
2023-01-11T21:10:57.535Z,33.20
2023-01-11T21:13:29.966Z,39.90
2023-01-11T21:16:06.461Z,34.20
2023-01-11T21:18:38.050Z,36.30
2023-01-11T21:21:12.719Z,32.20
2023-01-11T21:23:45.341Z,35.40
2023-01-11T21:26:18.957Z,34.50
2023-01-11T21:28:55.947Z,36.30
2023-01-11T21:31:28.167Z,33.00
2023-01-11T21:34:00.522Z,35.00
2023-01-11T21:36:33.390Z,33.80
2023-01-11T21:39:05.209Z,38.70
2023-01-11T21:41:54.467Z,36.20
2023-01-11T21:44:28.157Z,31.80
2023-01-11T21:46:59.927Z,34.90
2023-01-11T21:49:32.259Z,36.50
2023-01-11T21:52:04.160Z,30.30
2023-01-11T21:54:35.902Z,34.30
2023-01-11T21:57:07.573Z,32.20
2023-01-11T21:59:38.996Z,34.70
2023-01-11T22:02:10.706Z,32.90
2023-01-11T22:04:42.393Z,34.40
2023-01-11T22:07:14.161Z,32.60
2023-01-11T22:10:03.546Z,35.50
2023-01-11T22:12:36.392Z,33.30
2023-01-11T22:15:09.396Z,32.30
2023-01-11T22:17:40.871Z,28.60
2023-01-11T22:20:15.744Z,30.80
2023-01-11T22:25:17.694Z,36.00
2023-01-11T22:27:49.168Z,37.40
2023-01-11T22:30:20.989Z,33.80
2023-01-11T22:32:52.607Z,34.20
2023-01-11T22:35:24.498Z,35.90
2023-01-11T22:37:55.900Z,35.40
2023-01-11T22:40:27.751Z,29.70
2023-01-11T22:42:59.627Z,31.60
2023-01-11T22:45:31.196Z,32.70
2023-01-11T22:48:03.148Z,31.10
2023-01-11T22:50:34.509Z,31.00
2023-01-11T22:53:06.375Z,35.20
2023-01-11T22:55:37.994Z,37.10
2023-01-11T22:58:10.330Z,27.50
2023-01-11T23:00:42.185Z,33.80
2023-01-11T23:03:15.114Z,28.70
2023-01-11T23:05:49.504Z,32.20
2023-01-11T23:08:20.936Z,29.40
2023-01-11T23:10:55.516Z,30.80
2023-01-11T23:13:44.607Z,33.70
2023-01-11T23:16:16.037Z,30.30
2023-01-11T23:18:48.647Z,30.40
2023-01-11T23:21:20.671Z,30.40
2023-01-11T23:23:52.766Z,30.80
2023-01-11T23:26:24.615Z,32.70
2023-01-11T23:28:56.107Z,29.90
2023-01-11T23:31:30.927Z,32.10
2023-01-11T23:34:03.949Z,32.70
2023-01-11T23:36:37.673Z,28.00
2023-01-11T23:39:12.214Z,33.70
2023-01-11T23:42:01.469Z,32.90
2023-01-11T23:44:33.250Z,24.80
2023-01-11T23:47:25.496Z,36.10
2023-01-11T23:50:00.629Z,33.70
2023-01-11T23:52:33.953Z,30.80
2023-01-11T23:55:06.023Z,31.30
2023-01-11T23:57:37.542Z,31.20
